Time;durP1;ratioP1;P1;durP2;ratioP2;P2;SDS_P1;SDS_P2;PMS_P1;PMS_P2;Temp;Humidity;BMP_temperature;BMP_pressure;BME280_temperature;BME280_humidity;BME280_pressure;Samples;Min_cycle;Max_cycle;Signal;HPM_P1;HPM_P2
2023/12/10 00:01:19;;;;;;;24.20;11.10;;;;;;;0.40;77.78;98533.85;105162;1259;96599;-69
2023/12/10 00:03:47;;;;;;;27.50;12.30;;;;;;;0.40;77.73;98524.23;105172;1267;107539;-69
2023/12/10 00:06:15;;;;;;;27.40;13.30;;;;;;;0.42;77.87;98530.61;105126;1257;96674;-71
2023/12/10 00:08:42;;;;;;;28.10;12.80;;;;;;;0.44;77.99;98540.67;105342;1261;96728;-67
2023/12/10 00:11:11;;;;;;;29.00;13.50;;;;;;;0.44;77.77;98545.70;105061;1264;109703;-67
2023/12/10 00:13:39;;;;;;;25.80;12.60;;;;;;;0.44;78.09;98538.41;105385;1254;96578;-68
2023/12/10 00:16:10;;;;;;;27.40;12.40;;;;;;;0.44;77.90;98527.55;105398;1257;106000;-68
2023/12/10 00:18:38;;;;;;;28.20;13.80;;;;;;;0.46;77.90;98507.27;105500;1254;96657;-68
2023/12/10 00:21:06;;;;;;;25.80;12.10;;;;;;;0.47;78.06;98502.16;105536;1257;97553;-68
2023/12/10 00:23:34;;;;;;;30.00;13.90;;;;;;;0.50;77.93;98493.14;105434;1254;109923;-68
2023/12/10 00:26:02;;;;;;;26.30;12.20;;;;;;;0.52;78.26;98486.77;105504;1254;97955;-70
2023/12/10 00:28:30;;;;;;;27.00;12.30;;;;;;;0.54;78.01;98483.37;105574;1254;107584;-70
2023/12/10 00:30:57;;;;;;;26.40;12.70;;;;;;;0.57;78.13;98487.63;105430;1257;97039;-67
2023/12/10 00:33:25;;;;;;;26.80;12.80;;;;;;;0.61;78.00;98502.98;105108;1267;96713;-68
2023/12/10 00:35:53;;;;;;;27.20;12.90;;;;;;;0.64;78.24;98509.48;105026;1268;110084;-68
2023/12/10 00:38:21;;;;;;;26.20;12.10;;;;;;;0.68;78.04;98511.60;105151;1254;96702;-68
2023/12/10 00:40:49;;;;;;;29.20;13.80;;;;;;;0.72;78.21;98511.79;105042;1257;107632;-68
2023/12/10 00:43:17;;;;;;;28.40;13.00;;;;;;;0.75;78.24;98507.48;105361;1257;96607;-70
2023/12/10 00:45:45;;;;;;;28.50;12.60;;;;;;;0.78;77.90;98501.10;105352;1257;97527;-72
2023/12/10 00:48:13;;;;;;;26.80;13.30;;;;;;;0.80;78.29;98498.58;105291;1255;111084;-68
2023/12/10 00:50:41;;;;;;;29.30;12.80;;;;;;;0.81;78.18;98494.14;105643;1257;96697;-69
2023/12/10 00:53:09;;;;;;;28.30;13.60;;;;;;;0.82;78.31;98501.62;105390;1257;107803;-69
2023/12/10 00:55:37;;;;;;;26.40;12.40;;;;;;;0.84;78.09;98509.20;105258;1254;96609;-69
2023/12/10 00:58:05;;;;;;;28.50;13.40;;;;;;;0.85;78.13;98499.89;108092;1254;96507;-70
2023/12/10 01:00:32;;;;;;;27.50;12.20;;;;;;;0.87;78.05;98505.24;105064;1260;109961;-68
2023/12/10 01:03:04;;;;;;;26.30;12.70;;;;;;;0.87;77.86;98505.41;105385;1254;97417;-69
2023/12/10 01:05:31;;;;;;;24.40;11.60;;;;;;;0.86;77.79;98509.62;105248;1254;106543;-69
2023/12/10 01:08:00;;;;;;;28.10;13.60;;;;;;;0.89;78.00;98511.42;105089;1258;97837;-70
2023/12/10 01:10:27;;;;;;;28.40;13.30;;;;;;;0.89;78.12;98503.59;105312;1253;96633;-69
2023/12/10 01:12:56;;;;;;;27.30;13.50;;;;;;;0.89;77.99;98499.04;105308;1257;109472;-71
2023/12/10 01:15:31;;;;;;;30.60;14.80;;;;;;;0.89;78.06;98508.65;105094;1257;96754;-69
2023/12/10 01:18:02;;;;;;;27.00;13.50;;;;;;;0.89;78.01;98511.25;105330;1267;107579;-70
2023/12/10 01:20:32;;;;;;;26.70;13.60;;;;;;;0.89;77.76;98512.13;105147;1257;96654;-69
2023/12/10 01:23:00;;;;;;;25.40;12.00;;;;;;;0.89;78.01;98511.06;105233;1253;97447;-69
2023/12/10 01:25:28;;;;;;;25.90;12.50;;;;;;;0.91;77.95;98505.80;105289;1257;108520;-69
2023/12/10 01:27:56;;;;;;;25.40;11.60;;;;;;;0.91;77.78;98500.00;105184;1257;96568;-68
2023/12/10 01:30:24;;;;;;;26.40;11.20;;;;;;;0.92;77.89;98493.90;105353;1258;107259;-68
2023/12/10 01:32:55;;;;;;;25.90;12.30;;;;;;;0.90;77.86;98496.02;105197;1258;96568;-68
2023/12/10 01:35:22;;;;;;;25.50;12.70;;;;;;;0.89;77.90;98487.00;105269;1254;97437;-68
2023/12/10 01:37:51;;;;;;;25.40;11.40;;;;;;;0.89;78.04;98482.80;105337;1254;109949;-69
2023/12/10 01:40:19;;;;;;;28.10;12.90;;;;;;;0.88;77.99;98485.63;105138;1260;96603;-69
2023/12/10 01:42:47;;;;;;;25.90;11.70;;;;;;;0.86;77.62;98482.94;105221;1258;107355;-69
2023/12/10 01:45:15;;;;;;;25.90;11.80;;;;;;;0.84;77.75;98483.20;105299;1260;96724;-69
2023/12/10 01:47:45;;;;;;;24.20;11.50;;;;;;;0.84;77.88;98472.55;105308;1268;96742;-69
2023/12/10 01:50:15;;;;;;;28.30;12.20;;;;;;;0.82;77.96;98468.09;105142;1257;108407;-68
2023/12/10 01:52:45;;;;;;;24.40;11.90;;;;;;;0.79;77.58;98467.34;105222;1254;96634;-68
2023/12/10 01:55:13;;;;;;;24.40;12.20;;;;;;;0.77;77.65;98472.89;105302;1257;107602;-69
2023/12/10 01:57:41;;;;;;;24.30;11.60;;;;;;;0.73;77.40;98461.12;105286;1260;96594;-71
2023/12/10 02:00:10;;;;;;;27.60;12.20;;;;;;;0.69;77.61;98458.14;105337;1257;96591;-71
2023/12/10 02:02:39;;;;;;;26.00;12.40;;;;;;;0.66;77.47;98457.25;105232;1257;110092;-68
2023/12/10 02:05:08;;;;;;;25.20;11.80;;;;;;;0.62;77.33;98447.80;105272;1257;96721;-68
2023/12/10 02:07:37;;;;;;;28.10;12.70;;;;;;;0.59;77.47;98446.20;105287;1257;107096;-69
2023/12/10 02:10:05;;;;;;;26.30;12.30;;;;;;;0.56;77.35;98443.89;105281;1257;96766;-68
2023/12/10 02:12:35;;;;;;;26.70;12.60;;;;;;;0.55;77.77;98445.64;105273;1254;97954;-68
2023/12/10 02:15:14;;;;;;;25.30;12.30;;;;;;;0.55;77.69;98451.42;105375;1257;109867;-68
2023/12/10 02:17:42;;;;;;;25.50;12.20;;;;;;;0.56;77.45;98454.36;105345;1268;97957;-69
2023/12/10 02:20:13;;;;;;;26.20;12.30;;;;;;;0.57;77.65;98459.90;105236;1255;107669;-67
2023/12/10 02:22:48;;;;;;;28.80;13.60;;;;;;;0.59;77.60;98458.73;105509;1257;97422;-69
2023/12/10 02:25:22;;;;;;;26.20;12.00;;;;;;;0.62;77.97;98446.95;105352;1253;96523;-69
2023/12/10 02:27:50;;;;;;;26.50;13.40;;;;;;;0.64;77.65;98442.50;105260;1257;108721;-68
2023/12/10 02:30:18;;;;;;;26.60;13.20;;;;;;;0.66;77.77;98450.10;105303;1254;96611;-70
2023/12/10 02:32:46;;;;;;;24.50;12.00;;;;;;;0.68;77.35;98446.88;105333;1254;106267;-69
2023/12/10 02:35:15;;;;;;;25.90;12.30;;;;;;;0.70;77.50;98436.67;105277;1257;96580;-68
2023/12/10 02:37:42;;;;;;;27.00;12.60;;;;;;;0.70;77.57;98431.41;105317;1254;97192;-69
2023/12/10 02:40:11;;;;;;;27.40;12.30;;;;;;;0.70;77.31;98422.86;105342;1254;109904;-69
2023/12/10 02:42:39;;;;;;;28.00;13.00;;;;;;;0.70;77.24;98424.11;105469;1270;96513;-70
2023/12/10 02:45:07;;;;;;;26.20;12.10;;;;;;;0.69;77.24;98421.84;105114;1258;107633;-68
2023/12/10 02:47:36;;;;;;;25.70;12.70;;;;;;;0.68;77.33;98421.57;105010;1259;96549;-68
2023/12/10 02:50:05;;;;;;;28.40;13.90;;;;;;;0.66;77.23;98409.95;105288;1259;96559;-72
2023/12/10 02:52:38;;;;;;;31.10;15.00;;;;;;;0.62;77.18;98411.00;105239;1255;110560;-68
2023/12/10 02:55:08;;;;;;;26.70;13.20;;;;;;;0.58;77.25;98413.45;105181;1254;96501;-70
2023/12/10 02:57:37;;;;;;;30.10;12.40;;;;;;;0.53;77.09;98407.20;105358;1254;107709;-68
2023/12/10 03:00:07;;;;;;;29.80;12.80;;;;;;;0.48;76.98;98406.16;105669;1254;96605;-68
2023/12/10 03:02:36;;;;;;;31.00;13.60;;;;;;;0.46;77.51;98418.29;105485;1257;96520;-69
2023/12/10 03:05:04;;;;;;;29.60;13.90;;;;;;;0.43;77.25;98418.22;105494;1257;110530;-68
2023/12/10 03:07:33;;;;;;;29.60;14.10;;;;;;;0.42;77.17;98418.29;105053;1257;96568;-67
2023/12/10 03:10:02;;;;;;;30.70;13.40;;;;;;;0.41;77.18;98413.42;105145;1254;108000;-68
2023/12/10 03:12:30;;;;;;;30.20;14.50;;;;;;;0.40;77.34;98414.89;105476;1254;97356;-67
2023/12/10 03:14:58;;;;;;;29.80;13.60;;;;;;;0.39;77.16;98418.05;105479;1254;96603;-69
2023/12/10 03:17:26;;;;;;;29.80;15.80;;;;;;;0.37;77.23;98415.69;105254;1257;110764;-69
2023/12/10 03:19:54;;;;;;;26.90;13.40;;;;;;;0.37;77.30;98413.27;105043;1254;96594;-68
2023/12/10 03:22:22;;;;;;;28.10;14.40;;;;;;;0.34;77.43;98404.30;105017;1257;107781;-70
2023/12/10 03:24:50;;;;;;;28.90;13.80;;;;;;;0.33;77.05;98398.06;105358;1254;96638;-69
2023/12/10 03:27:17;;;;;;;29.80;14.60;;;;;;;0.36;77.61;98409.13;105263;1255;96651;-69
2023/12/10 03:29:46;;;;;;;28.80;13.40;;;;;;;0.35;77.33;98404.62;105266;1257;109879;-68
2023/12/10 03:32:14;;;;;;;30.60;15.20;;;;;;;0.35;77.36;98409.70;105086;1257;97541;-69
2023/12/10 03:34:42;;;;;;;28.40;14.00;;;;;;;0.35;77.54;98400.44;105228;1257;107704;-69
2023/12/10 03:37:12;;;;;;;29.00;14.30;;;;;;;0.36;77.59;98390.45;105390;1257;97810;-71
2023/12/10 03:39:40;;;;;;;29.70;14.30;;;;;;;0.37;77.28;98389.36;105351;1253;96584;-70
2023/12/10 03:42:08;;;;;;;29.60;14.00;;;;;;;0.38;77.46;98384.10;105046;1270;109624;-70
2023/12/10 03:44:36;;;;;;;27.50;13.50;;;;;;;0.38;77.55;98385.30;105247;1254;96624;-69
2023/12/10 03:47:03;;;;;;;29.70;14.70;;;;;;;0.38;77.47;98376.05;105068;1269;107324;-69
2023/12/10 03:49:31;;;;;;;29.80;14.50;;;;;;;0.39;77.45;98374.98;105204;1254;96715;-69
2023/12/10 03:51:59;;;;;;;32.00;15.40;;;;;;;0.40;77.44;98377.22;105409;1254;96572;-71
2023/12/10 03:54:27;;;;;;;32.20;15.50;;;;;;;0.40;77.44;98373.19;105265;1257;109888;-69
2023/12/10 03:56:55;;;;;;;30.40;14.90;;;;;;;0.40;77.32;98365.52;105424;1253;96604;-69
2023/12/10 03:59:23;;;;;;;29.40;14.90;;;;;;;0.39;77.41;98353.68;105152;1270;107949;-69
2023/12/10 04:01:50;;;;;;;30.20;14.60;;;;;;;0.41;77.10;98352.90;105604;1254;96629;-69
2023/12/10 04:04:18;;;;;;;31.00;14.50;;;;;;;0.42;77.41;98352.67;105101;1258;96616;-71
2023/12/10 04:06:46;;;;;;;30.60;14.80;;;;;;;0.41;77.10;98355.52;105148;1257;109993;-68
2023/12/10 04:09:14;;;;;;;27.80;13.70;;;;;;;0.41;77.47;98354.64;105146;1258;96972;-68
2023/12/10 04:11:42;;;;;;;32.10;15.70;;;;;;;0.41;77.32;98341.73;105051;1257;107584;-68
2023/12/10 04:14:10;;;;;;;30.40;14.90;;;;;;;0.40;77.16;98338.48;105300;1257;97003;-68
2023/12/10 04:16:39;;;;;;;29.80;14.60;;;;;;;0.38;77.16;98341.70;105237;1253;96519;-68
2023/12/10 04:19:07;;;;;;;29.90;14.00;;;;;;;0.37;77.39;98337.23;105257;1254;109312;-68
2023/12/10 04:21:35;;;;;;;31.40;16.50;;;;;;;0.35;77.09;98336.61;105362;1257;96606;-68
2023/12/10 04:24:03;;;;;;;29.10;14.80;;;;;;;0.34;76.85;98336.11;105336;1257;105999;-69
2023/12/10 04:26:31;;;;;;;33.50;16.40;;;;;;;0.33;77.10;98336.85;105277;1260;97817;-68
2023/12/10 04:28:58;;;;;;;32.60;14.70;;;;;;;0.33;77.39;98344.53;105268;1257;96635;-68
2023/12/10 04:31:26;;;;;;;28.90;14.00;;;;;;;0.35;77.23;98340.27;105075;1258;109407;-68
2023/12/10 04:33:54;;;;;;;28.10;13.60;;;;;;;0.37;77.31;98335.84;105143;1254;96605;-67
2023/12/10 04:36:23;;;;;;;29.80;14.20;;;;;;;0.37;77.06;98334.58;105390;1257;107957;-69
2023/12/10 04:38:51;;;;;;;29.10;14.20;;;;;;;0.38;77.04;98335.59;105185;1276;97817;-68
2023/12/10 04:41:18;;;;;;;29.40;15.10;;;;;;;0.40;77.00;98327.68;105294;1257;96633;-68
2023/12/10 04:43:48;;;;;;;28.80;13.30;;;;;;;0.39;76.79;98324.23;105266;1257;109490;-68
2023/12/10 04:46:18;;;;;;;31.90;15.60;;;;;;;0.38;76.91;98326.01;105276;1259;96604;-68
2023/12/10 04:48:46;;;;;;;29.20;13.20;;;;;;;0.39;76.89;98325.98;105053;1257;107351;-67
2023/12/10 04:51:14;;;;;;;30.80;14.30;;;;;;;0.39;76.92;98323.55;105296;1257;96647;-68
2023/12/10 04:53:42;;;;;;;28.90;13.20;;;;;;;0.38;76.88;98322.86;105257;1257;97207;-67
2023/12/10 04:56:10;;;;;;;28.00;12.90;;;;;;;0.38;77.00;98321.98;105120;1254;109809;-67
2023/12/10 04:58:38;;;;;;;30.20;14.40;;;;;;;0.39;76.80;98321.79;105298;1257;96600;-69
2023/12/10 05:01:05;;;;;;;27.50;13.10;;;;;;;0.40;76.99;98329.93;105107;1260;107728;-69
2023/12/10 05:03:34;;;;;;;26.80;12.80;;;;;;;0.40;77.14;98334.11;105433;1256;96676;-69
2023/12/10 05:06:02;;;;;;;30.00;14.30;;;;;;;0.41;77.11;98330.73;105290;1257;97538;-69
2023/12/10 05:08:30;;;;;;;29.30;14.70;;;;;;;0.41;76.79;98325.84;105360;1253;109960;-68
2023/12/10 05:10:58;;;;;;;30.00;14.40;;;;;;;0.42;77.00;98327.06;105200;1254;96609;-69
2023/12/10 05:13:26;;;;;;;30.30;14.20;;;;;;;0.42;76.98;98332.09;105072;1258;107611;-71
2023/12/10 05:15:56;;;;;;;27.40;12.10;;;;;;;0.44;76.97;98338.30;105226;1257;97528;-67
2023/12/10 05:18:25;;;;;;;28.70;13.20;;;;;;;0.45;76.94;98336.17;105545;1253;96615;-69
2023/12/10 05:20:53;;;;;;;28.60;15.20;;;;;;;0.45;76.94;98334.94;105354;1257;109123;-69
2023/12/10 05:23:21;;;;;;;27.70;12.90;;;;;;;0.45;76.76;98331.64;105021;1260;96622;-68
2023/12/10 05:25:50;;;;;;;27.80;13.30;;;;;;;0.47;76.70;98340.29;105035;1253;107709;-68
2023/12/10 05:28:18;;;;;;;30.60;14.10;;;;;;;0.49;76.41;98338.61;105253;1254;96712;-67
2023/12/10 05:30:46;;;;;;;26.80;13.00;;;;;;;0.51;77.03;98341.68;105047;1258;96607;-68
2023/12/10 05:33:13;;;;;;;25.50;11.90;;;;;;;0.52;76.96;98344.41;105060;1257;109867;-68
2023/12/10 05:35:41;;;;;;;26.80;12.50;;;;;;;0.54;76.67;98344.67;105089;1267;97426;-67
2023/12/10 05:38:09;;;;;;;25.80;12.80;;;;;;;0.56;76.81;98347.91;105349;1257;106784;-68
2023/12/10 05:40:37;;;;;;;27.00;12.50;;;;;;;0.58;76.82;98359.86;105455;1257;96683;-68
2023/12/10 05:43:05;;;;;;;26.90;13.30;;;;;;;0.60;76.35;98354.91;105317;1253;96597;-69
2023/12/10 05:45:33;;;;;;;27.40;12.40;;;;;;;0.62;76.86;98358.47;105548;1253;109871;-69
2023/12/10 05:48:01;;;;;;;29.10;13.60;;;;;;;0.64;76.88;98360.29;105318;1257;96615;-69
2023/12/10 05:50:29;;;;;;;27.10;12.10;;;;;;;0.66;77.10;98361.60;105360;1255;107582;-69
2023/12/10 05:52:57;;;;;;;26.50;12.50;;;;;;;0.68;76.89;98366.57;105074;1267;96628;-69
2023/12/10 05:55:24;;;;;;;27.10;13.00;;;;;;;0.70;76.90;98364.21;105167;1254;96622;-69
2023/12/10 05:57:52;;;;;;;28.30;13.40;;;;;;;0.72;76.88;98360.13;105090;1257;110086;-69
2023/12/10 06:00:20;;;;;;;24.40;12.10;;;;;;;0.74;76.97;98363.55;105203;1260;97811;-69
2023/12/10 06:02:48;;;;;;;27.90;13.90;;;;;;;0.75;76.92;98364.18;105743;1258;107662;-69
2023/12/10 06:05:16;;;;;;;25.60;11.60;;;;;;;0.77;76.78;98369.17;106413;1253;97195;-69
2023/12/10 06:07:44;;;;;;;26.70;12.90;;;;;;;0.79;76.45;98365.27;105386;1257;97187;-72
2023/12/10 06:10:12;;;;;;;27.90;13.40;;;;;;;0.80;76.71;98363.11;105485;1257;109933;-68
2023/12/10 06:12:40;;;;;;;25.60;12.50;;;;;;;0.81;76.58;98364.81;105694;1257;96504;-70
2023/12/10 06:15:08;;;;;;;28.60;12.80;;;;;;;0.82;76.64;98372.59;105490;1257;107349;-68
2023/12/10 06:17:36;;;;;;;26.60;13.50;;;;;;;0.83;76.61;98378.70;105549;1254;96664;-68
2023/12/10 06:20:08;;;;;;;28.40;13.20;;;;;;;0.83;76.71;98381.63;105188;1254;97435;-68
2023/12/10 06:22:35;;;;;;;25.80;12.50;;;;;;;0.85;76.91;98382.93;105305;1259;108768;-68
2023/12/10 06:25:04;;;;;;;26.10;13.10;;;;;;;0.86;76.65;98374.89;105352;1258;97827;-69
2023/12/10 06:27:31;;;;;;;26.30;12.50;;;;;;;0.86;76.75;98381.34;108581;1253;109984;-69
2023/12/10 06:29:59;;;;;;;27.50;13.20;;;;;;;0.84;76.76;98380.38;108678;1253;94302;-70
2023/12/10 06:32:28;;;;;;;26.40;13.10;;;;;;;0.83;76.61;98383.56;108666;1254;94287;-68
2023/12/10 06:34:56;;;;;;;24.90;12.10;;;;;;;0.84;76.58;98381.77;108638;1253;109978;-70
2023/12/10 06:37:24;;;;;;;27.20;13.30;;;;;;;0.85;76.61;98388.38;106148;1259;96708;-69
2023/12/10 06:39:52;;;;;;;25.00;11.60;;;;;;;0.86;76.45;98390.94;105462;1253;107131;-68
2023/12/10 06:42:20;;;;;;;26.70;12.20;;;;;;;0.88;76.54;98392.42;105406;1260;97547;-67
2023/12/10 06:44:50;;;;;;;26.40;12.60;;;;;;;0.89;76.38;98385.02;105471;1258;96705;-69
2023/12/10 06:47:18;;;;;;;27.20;13.30;;;;;;;0.91;76.75;98379.91;105376;1257;109201;-67
2023/12/10 06:49:46;;;;;;;27.20;13.40;;;;;;;0.93;76.58;98378.44;105342;1253;96737;-68
2023/12/10 06:52:15;;;;;;;26.70;12.90;;;;;;;0.94;76.50;98375.75;105172;1254;107569;-69
2023/12/10 06:54:43;;;;;;;26.70;12.50;;;;;;;0.96;76.68;98380.36;105312;1254;96596;-70
2023/12/10 06:57:11;;;;;;;26.70;13.30;;;;;;;0.99;76.57;98378.36;105492;1253;96597;-69
2023/12/10 06:59:39;;;;;;;26.30;11.80;;;;;;;1.01;76.30;98374.25;105289;1254;109538;-70
2023/12/10 07:02:07;;;;;;;26.70;12.30;;;;;;;1.04;76.43;98373.04;105755;1257;96637;-76
2023/12/10 07:04:36;;;;;;;25.50;12.10;;;;;;;1.11;76.27;98385.15;105366;1254;106718;-76
2023/12/10 07:07:03;;;;;;;27.90;13.90;;;;;;;1.16;76.52;98385.27;105298;1260;96608;-79
2023/12/10 07:09:31;;;;;;;24.80;11.50;;;;;;;1.19;76.52;98377.77;105056;1258;96604;-75
2023/12/10 07:11:59;;;;;;;25.10;12.80;;;;;;;1.22;76.34;98373.32;105416;1258;109504;-77
2023/12/10 07:14:27;;;;;;;23.80;11.20;;;;;;;1.26;76.09;98376.09;105152;1254;97946;-71
2023/12/10 07:16:55;;;;;;;25.80;12.50;;;;;;;1.26;76.21;98382.35;105352;1257;107233;-71
2023/12/10 07:19:23;;;;;;;24.60;11.50;;;;;;;1.27;76.02;98383.20;105099;1255;96604;-73
2023/12/10 07:21:52;;;;;;;25.20;12.30;;;;;;;1.28;75.97;98388.05;105245;1253;96771;-71
2023/12/10 07:24:21;;;;;;;27.80;13.20;;;;;;;1.30;76.34;98384.99;105401;1257;109345;-72
2023/12/10 07:26:50;;;;;;;25.70;11.90;;;;;;;1.32;76.03;98387.86;105336;1259;96681;-73
2023/12/10 07:29:17;;;;;;;24.80;11.70;;;;;;;1.33;76.13;98389.02;105351;1259;107313;-72
2023/12/10 07:31:45;;;;;;;24.00;11.50;;;;;;;1.36;76.25;98388.38;105119;1257;98405;-72
2023/12/10 07:34:13;;;;;;;26.40;11.00;;;;;;;1.38;76.24;98389.54;105434;1254;96629;-71
2023/12/10 07:36:41;;;;;;;23.20;10.30;;;;;;;1.40;76.25;98393.29;105404;1259;109116;-72
2023/12/10 07:39:09;;;;;;;24.40;11.40;;;;;;;1.43;76.29;98394.89;105446;1257;96699;-72
2023/12/10 07:41:37;;;;;;;23.80;11.00;;;;;;;1.44;76.07;98397.63;105199;1255;107598;-71
2023/12/10 07:44:05;;;;;;;24.90;11.50;;;;;;;1.44;76.01;98400.39;105545;1260;96623;-72
2023/12/10 07:46:32;;;;;;;25.30;11.80;;;;;;;1.44;75.78;98402.54;105594;1257;97528;-72
2023/12/10 07:49:00;;;;;;;26.10;11.90;;;;;;;1.45;76.22;98405.06;105407;1257;108940;-77
2023/12/10 07:51:28;;;;;;;24.10;10.90;;;;;;;1.46;75.80;98408.16;105374;1253;96619;-75
2023/12/10 07:53:56;;;;;;;23.80;11.10;;;;;;;1.47;76.03;98408.80;105283;1258;105617;-73
2023/12/10 07:56:24;;;;;;;25.40;11.60;;;;;;;1.49;75.85;98408.92;105462;1257;96660;-78
2023/12/10 07:58:52;;;;;;;24.20;11.30;;;;;;;1.51;75.70;98410.77;105261;1260;96596;-73
2023/12/10 08:01:20;;;;;;;23.80;11.20;;;;;;;1.53;75.79;98418.72;105298;1257;109930;-73
2023/12/10 08:03:48;;;;;;;24.50;12.40;;;;;;;1.55;75.62;98418.27;105333;1268;96606;-74
2023/12/10 08:06:17;;;;;;;28.30;12.70;;;;;;;1.58;75.79;98415.86;105262;1257;107587;-72
2023/12/10 08:08:45;;;;;;;26.20;12.10;;;;;;;1.61;75.76;98417.30;105466;1254;96645;-72
2023/12/10 08:11:16;;;;;;;25.60;11.90;;;;;;;1.63;75.69;98426.64;105594;1272;97438;-74
2023/12/10 08:13:44;;;;;;;28.40;13.10;;;;;;;1.67;75.74;98432.23;105489;1254;109985;-72
2023/12/10 08:16:12;;;;;;;27.80;14.30;;;;;;;1.69;75.78;98436.84;105247;1260;96619;-72
2023/12/10 08:18:40;;;;;;;29.90;15.40;;;;;;;1.72;76.02;98437.42;105425;1258;107299;-73
2023/12/10 08:21:08;;;;;;;28.80;13.50;;;;;;;1.72;75.63;98437.75;105753;1254;96629;-72
2023/12/10 08:23:36;;;;;;;31.70;16.20;;;;;;;1.75;75.71;98440.41;105903;1254;97733;-75
2023/12/10 08:26:04;;;;;;;28.00;14.00;;;;;;;1.79;75.55;98449.83;105301;1257;109995;-72
2023/12/10 08:28:32;;;;;;;26.20;13.80;;;;;;;1.82;75.86;98457.75;105455;1254;97540;-71
2023/12/10 08:31:00;;;;;;;26.60;12.70;;;;;;;1.85;75.93;98461.65;105339;1261;109054;-75
2023/12/10 08:33:27;;;;;;;25.20;12.20;;;;;;;1.86;75.42;98460.52;105656;1254;96658;-74
2023/12/10 08:35:55;;;;;;;26.60;12.30;;;;;;;1.88;75.82;98471.79;105672;1257;96619;-74
2023/12/10 08:38:23;;;;;;;26.20;12.40;;;;;;;1.91;75.74;98482.14;105374;1255;109758;-72
2023/12/10 08:40:51;;;;;;;25.90;11.70;;;;;;;1.94;75.72;98486.91;105524;1257;96624;-73
2023/12/10 08:43:20;;;;;;;26.30;12.60;;;;;;;1.98;75.58;98484.66;105429;1270;109715;-73
2023/12/10 08:45:48;;;;;;;26.50;13.10;;;;;;;2.01;75.77;98491.35;105127;1260;96574;-72
2023/12/10 08:48:16;;;;;;;30.90;14.90;;;;;;;2.02;75.32;98501.27;105082;1257;96549;-72
2023/12/10 08:50:44;;;;;;;31.30;15.70;;;;;;;2.03;76.05;98505.40;105339;1257;108923;-72
2023/12/10 08:53:12;;;;;;;27.50;13.40;;;;;;;2.08;76.07;98507.06;105134;1258;96669;-71
2023/12/10 08:55:40;;;;;;;28.20;13.80;;;;;;;2.11;75.30;98512.53;105370;1260;107574;-74
2023/12/10 08:58:08;;;;;;;26.50;12.80;;;;;;;2.13;75.52;98514.00;105403;1254;97192;-71
2023/12/10 09:00:35;;;;;;;25.80;12.80;;;;;;;2.16;75.74;98521.42;105040;1254;96571;-72
2023/12/10 09:03:04;;;;;;;26.20;13.40;;;;;;;2.21;75.67;98529.05;105300;1257;109489;-72
2023/12/10 09:05:32;;;;;;;29.10;14.30;;;;;;;2.24;75.67;98530.46;105366;1257;96531;-72
2023/12/10 09:08:00;;;;;;;27.40;14.20;;;;;;;2.27;75.59;98529.31;105335;1258;107402;-74
2023/12/10 09:10:27;;;;;;;27.80;14.10;;;;;;;2.29;75.85;98524.27;105103;1257;96661;-72
2023/12/10 09:12:55;;;;;;;27.10;13.60;;;;;;;2.34;75.74;98522.11;105464;1254;96631;-73
2023/12/10 09:15:23;;;;;;;27.10;13.60;;;;;;;2.37;75.75;98519.70;105399;1254;109930;-72
2023/12/10 09:17:51;;;;;;;28.70;14.30;;;;;;;2.41;75.78;98523.75;105370;1257;96622;-73
2023/12/10 09:20:19;;;;;;;27.10;13.10;;;;;;;2.43;75.79;98520.86;105308;1260;107364;-71
2023/12/10 09:22:47;;;;;;;26.50;13.30;;;;;;;2.44;75.54;98523.91;105441;1258;96610;-74
2023/12/10 09:25:15;;;;;;;25.30;12.20;;;;;;;2.45;75.74;98520.02;105504;1254;97732;-74
2023/12/10 09:27:43;;;;;;;24.80;12.10;;;;;;;2.47;75.75;98518.71;105231;1260;110329;-72
2023/12/10 09:30:11;;;;;;;24.60;11.00;;;;;;;2.48;75.54;98516.90;105444;1257;96610;-72
2023/12/10 09:32:40;;;;;;;24.40;11.90;;;;;;;2.47;75.40;98518.54;105665;1259;107194;-75
2023/12/10 09:35:07;;;;;;;25.00;12.30;;;;;;;2.48;75.45;98517.06;105233;1256;97061;-73
2023/12/10 09:37:37;;;;;;;26.10;13.40;;;;;;;2.50;75.64;98515.23;105498;1257;96694;-73
2023/12/10 09:40:05;;;;;;;26.70;12.60;;;;;;;2.54;75.46;98514.17;105214;1259;109513;-74
2023/12/10 09:42:33;;;;;;;25.00;12.30;;;;;;;2.55;75.50;98518.19;105244;1259;96626;-73
2023/12/10 09:45:02;;;;;;;27.60;12.50;;;;;;;2.57;75.48;98518.27;105563;1258;108109;-73
2023/12/10 09:47:30;;;;;;;27.80;13.10;;;;;;;2.58;75.58;98515.23;105092;1259;97885;-72
2023/12/10 09:49:59;;;;;;;30.00;13.80;;;;;;;2.59;75.25;98509.20;105569;1254;96522;-72
2023/12/10 09:52:27;;;;;;;29.60;15.50;;;;;;;2.60;75.73;98508.63;105207;1260;109397;-73
2023/12/10 09:54:56;;;;;;;29.10;14.50;;;;;;;2.63;75.66;98508.31;105481;1259;97435;-75
2023/12/10 09:57:26;;;;;;;25.40;12.50;;;;;;;2.65;75.77;98510.50;105230;1258;106644;-73
2023/12/10 09:59:54;;;;;;;24.30;11.30;;;;;;;2.65;75.02;98510.30;105399;1259;97565;-75
2023/12/10 10:02:33;;;;;;;24.90;11.80;;;;;;;2.62;74.80;98510.46;105505;1259;96589;-70
2023/12/10 10:05:03;;;;;;;27.20;12.70;;;;;;;2.59;75.12;98515.69;105584;1257;108372;-72
2023/12/10 10:07:31;;;;;;;25.30;11.90;;;;;;;2.59;75.13;98515.52;105397;1258;97815;-73
2023/12/10 10:09:59;;;;;;;25.60;12.20;;;;;;;2.57;75.36;98513.70;105423;1254;108162;-74
2023/12/10 10:12:30;;;;;;;25.40;12.80;;;;;;;2.59;75.53;98518.67;105582;1257;97543;-71
2023/12/10 10:15:00;;;;;;;24.40;10.90;;;;;;;2.61;74.94;98518.38;105586;1254;96609;-74
2023/12/10 10:17:29;;;;;;;29.40;13.90;;;;;;;2.58;74.92;98517.31;105583;1260;109337;-73
2023/12/10 10:19:59;;;;;;;28.80;14.30;;;;;;;2.57;75.32;98511.05;105426;1260;96594;-72
2023/12/10 10:22:27;;;;;;;29.00;13.80;;;;;;;2.58;75.42;98514.86;105446;1260;107652;-74
2023/12/10 10:24:55;;;;;;;27.60;13.40;;;;;;;2.60;75.46;98518.81;105165;1259;96632;-73
2023/12/10 10:27:24;;;;;;;28.80;13.90;;;;;;;2.60;75.17;98524.05;105523;1256;97474;-72
2023/12/10 10:29:54;;;;;;;28.60;14.70;;;;;;;2.57;75.00;98514.02;105343;1258;109828;-72
2023/12/10 10:32:23;;;;;;;29.20;14.70;;;;;;;2.57;74.96;98514.02;105227;1254;96590;-74
2023/12/10 10:34:52;;;;;;;27.20;13.50;;;;;;;2.55;75.07;98511.85;105344;1259;106280;-73
2023/12/10 10:37:20;;;;;;;28.50;14.50;;;;;;;2.54;75.09;98513.46;105401;1260;96634;-76
2023/12/10 10:39:49;;;;;;;27.20;13.10;;;;;;;2.56;75.59;98511.29;105159;1258;96598;-72
2023/12/10 10:42:18;;;;;;;26.40;14.10;;;;;;;2.57;74.87;98511.58;105299;1254;109904;-72
2023/12/10 10:44:46;;;;;;;33.20;17.00;;;;;;;2.53;74.99;98509.98;105320;1260;96693;-73
2023/12/10 10:47:18;;;;;;;26.60;12.60;;;;;;;2.53;75.00;98510.57;105396;1258;107294;-73
2023/12/10 10:49:53;;;;;;;32.00;14.30;;;;;;;2.55;75.58;98509.23;105394;1256;96597;-74
2023/12/10 10:52:42;;;;;;;26.70;12.90;;;;;;;2.57;74.68;98504.40;105400;1256;97658;-72
2023/12/10 10:55:11;;;;;;;26.90;13.70;;;;;;;2.54;74.58;98508.91;105412;1257;109790;-72
2023/12/10 10:57:39;;;;;;;27.50;13.90;;;;;;;2.50;75.05;98509.45;105397;1260;97536;-72
2023/12/10 11:03:53;;;;;;;27.90;14.40;;;;;;;2.51;74.95;98502.45;102054;1304;638834;-73
2023/12/10 11:06:20;;;;;;;31.30;16.20;;;;;;;2.51;75.14;98503.11;105096;1275;94892;-73
2023/12/10 11:08:59;;;;;;;29.40;15.30;;;;;;;2.50;74.94;98507.72;104806;1267;94338;-76
2023/12/10 11:11:26;;;;;;;29.00;14.60;;;;;;;2.52;75.34;98506.58;104784;1267;107286;-73
2023/12/10 11:13:55;;;;;;;27.30;13.40;;;;;;;2.53;74.95;98500.07;104976;1274;95475;-74
2023/12/10 11:16:22;;;;;;;25.50;12.40;;;;;;;2.51;74.91;98505.04;104777;1262;148063;-73
2023/12/10 11:18:58;;;;;;;27.90;13.40;;;;;;;2.51;74.85;98504.66;104899;1261;94490;-72
2023/12/10 11:21:25;;;;;;;29.80;15.00;;;;;;;2.54;75.11;98506.48;105050;1274;94110;-73
2023/12/10 11:23:52;;;;;;;28.90;15.20;;;;;;;2.55;75.07;98503.10;105081;1263;94326;-73